This is the latest recevied weather packets stored in our database for station/object SQ4IXR-4. If no packets are shown the sender has not sent any weather packets the latest 10 day(s).
| Time | Temp. | Humidity | Pressure | Rain* | Wind** | Luminosity | Snow |
|---|---|---|---|---|---|---|---|
| 1787831088 | 25.56° C | 35% | 1028.4 hPa | - | - | - | - |
| 1787830266 | 25.56° C | 37% | 1028.4 hPa | - | - | - | - |
| 1787829442 | 24.44° C | 38% | 1028.5 hPa | - | - | - | - |
| 1787828618 | 26.67° C | 34% | 1028.3 hPa | - | - | - | - |
| 1787826967 | 26.11° C | 38% | 1028.3 hPa | - | - | - | - |
| 1787826144 | 26.11° C | 36% | 1028.5 hPa | - | - | - | - |
| 1787825322 | 26.11° C | 37% | 1028.5 hPa | - | - | - | - |
| 1787824491 | 26.11° C | 38% | 1028.5 hPa | - | - | - | - |
| 1787823666 | 24.44° C | 41% | 1028.7 hPa | - | - | - | - |
| 1787822846 | 25° C | 39% | 1028.7 hPa | - | - | - | - |
| 1787822020 | 26.11° C | 37% | 1028.7 hPa | - | - | - | - |
| 1787821214 | 30.56° C | 31% | 1028.3 hPa | - | - | - | - |
| 1787820400 | 40° C | 18% | 1027.9 hPa | - | - | - | - |
| 1787819572 | 42.22° C | 17% | 1027.6 hPa | - | - | - | - |
| 1787818755 | 42.78° C | 17% | 1027.8 hPa | - | - | - | - |
| 1787817933 | 45° C | 15% | 1027.6 hPa | - | - | - | - |
| 1787817108 | 46.67° C | 14% | 1027.5 hPa | - | - | - | - |
| 1787816292 | 48.89° C | 13% | 1027.3 hPa | - | - | - | - |
| 1787815462 | 45.56° C | 15% | 1027.4 hPa | - | - | - | - |
| 1787814642 | 47.22° C | 14% | 1027.3 hPa | - | - | - | - |
| 1787813806 | 44.44° C | 17% | 1027.6 hPa | - | - | - | - |
| 1787812977 | 41.67° C | 20% | 1027.7 hPa | - | - | - | - |
| 1787812148 | 37.22° C | 25% | 1027.9 hPa | - | - | - | - |
| 1787811323 | 33.89° C | 29% | 1028.1 hPa | - | - | - | - |
| 1787810488 | 30° C | 36% | 1028.4 hPa | - | - | - | - |
* Rain since midnight (hover to see other rain measurements)
** Current wind speed in m/s (hover to see current wind gust speed)